.
WxDataArchive / Data Records for 2009-06-21
2009-06-20 June 2009 2009-06-22

Data Records for Sunday, 21 June 2009

Time	Temp	Chill	HIndex	Humid	Dewpt	 Wind 	HiWind	WindDir	Rain 	Barom 
-----	----	-----	------	-----	-----	------	------	-------	-----	----- 
00:00	68.6	68.6	68.6	78	61.5	0	0	---	0.00	29.809 
00:05	68.4	68.4	68.4	79	61.6	0	0	---	0.00	29.809 
00:10	68.3	68.3	68.3	80	61.9	0	0	---	0.00	29.809 
00:15	68.1	68.1	68.1	80	61.7	0	0	---	0.00	29.806 
00:20	67.9	67.9	67.9	81	61.8	0	0	---	0.00	29.806 
00:25	67.8	67.8	67.8	81	61.7	0	0	---	0.00	29.806 
00:30	67.8	67.8	67.8	82	62.1	0	0	---	0.00	29.804 
00:35	67.6	67.6	67.6	82	61.9	0	0	---	0.00	29.804 
00:40	67.4	67.4	67.4	82	61.7	0	0	---	0.00	29.804 
00:45	67.4	67.4	67.4	83	62.0	0	0	---	0.00	29.800 
00:50	67.3	67.3	67.3	83	62.0	0	0	---	0.00	29.800 
00:55	67.1	67.1	67.1	84	62.1	0	0	---	0.00	29.800 
01:00	67.1	67.1	67.1	84	62.1	0	0	---	0.00	29.798 
01:05	66.9	66.9	66.9	84	61.9	0	0	---	0.00	29.798 
01:10	66.8	66.8	66.8	84	61.8	0	0	---	0.00	29.798 
01:15	66.8	66.8	66.8	85	62.1	0	0	---	0.00	29.799 
01:20	66.6	66.6	66.6	85	61.9	0	0	---	0.00	29.799 
01:25	66.4	66.4	66.4	85	61.7	0	0	---	0.00	29.799 
01:30	66.3	66.3	66.3	86	62.0	0	0	---	0.00	29.803 
01:35	66.3	66.3	66.3	86	62.0	0	0	---	0.00	29.803 
01:40	66.3	66.3	66.3	86	62.0	0	0	---	0.00	29.803 
01:45	66.4	66.4	66.4	86	62.1	0	0	---	0.00	29.800 
01:50	66.4	66.4	66.4	86	62.1	0	0	---	0.00	29.800 
01:55	66.6	66.6	66.6	85	61.9	0	0	---	0.00	29.800 
02:00	66.6	66.6	66.6	85	61.9	0	0	---	0.00	29.795 
02:05	66.6	66.6	66.6	85	61.9	0	0	---	0.00	29.795 
02:10	66.6	66.6	66.6	85	61.9	0	0	---	0.00	29.795 
02:15	66.6	66.6	66.6	85	61.9	0	0	---	0.00	29.797 
02:20	66.6	66.6	66.6	85	61.9	0	0	---	0.00	29.797 
02:25	66.6	66.6	66.6	85	61.9	0	0	---	0.00	29.797 
02:30	66.4	66.4	66.4	85	61.7	0	0	---	0.00	29.800 
02:35	66.4	66.4	66.4	85	61.7	0	0	---	0.00	29.800 
02:40	66.3	66.3	66.3	85	61.6	0	0	---	0.00	29.800 
02:45	66.0	66.0	66.0	85	61.4	0	0	---	0.00	29.794 
02:50	65.8	65.8	65.8	86	61.5	0	0	---	0.00	29.794 
02:55	65.6	65.6	65.6	86	61.3	0	0	---	0.00	29.794 
03:00	65.5	65.5	65.5	87	61.5	0	0	---	0.00	29.795 
03:05	65.3	65.3	65.3	87	61.3	0	0	---	0.00	29.795 
03:10	65.2	65.2	65.2	88	61.6	0	0	---	0.00	29.795 
03:15	65.2	65.2	65.2	88	61.6	0	0	---	0.00	29.796 
03:20	65.2	65.2	65.2	88	61.6	0	0	---	0.00	29.796 
03:25	65.2	65.2	65.2	88	61.6	0	0	---	0.00	29.796 
03:30	65.0	65.0	65.0	88	61.4	0	0	---	0.00	29.795 
03:35	65.2	65.2	65.2	88	61.6	0	0	---	0.00	29.795 
03:40	65.2	65.2	65.2	88	61.6	0	0	---	0.00	29.795 
03:45	65.3	65.3	65.3	88	61.6	0	0	---	0.00	29.796 
03:50	65.5	65.5	65.5	88	61.8	0	0	---	0.00	29.796 
03:55	65.5	65.5	65.5	88	61.8	0	0	---	0.00	29.796 
04:00	65.5	65.5	65.5	87	61.5	0	0	---	0.00	29.797 
04:05	65.5	65.5	65.5	87	61.5	0	0	---	0.00	29.797 
04:10	65.5	65.5	65.5	87	61.5	0	0	---	0.00	29.797 
04:15	65.5	65.5	65.5	87	61.5	0	0	---	0.00	29.802 
04:20	65.5	65.5	65.5	87	61.5	0	0	---	0.00	29.802 
04:25	65.5	65.5	65.5	87	61.5	0	0	---	0.00	29.802 
04:30	65.5	65.5	65.5	87	61.5	0	0	---	0.00	29.802 
04:35	65.3	65.3	65.3	87	61.3	0	0	---	0.00	29.802 
04:40	65.3	65.3	65.3	87	61.3	0	0	---	0.00	29.802 
04:45	65.2	65.2	65.2	87	61.2	0	0	---	0.00	29.803 
04:50	65.2	65.2	65.2	88	61.6	0	0	---	0.00	29.803 
04:55	65.0	65.0	65.0	88	61.4	0	0	---	0.00	29.803 
05:00	65.0	65.0	65.0	88	61.4	0	0	---	0.00	29.804 
05:05	65.0	65.0	65.0	88	61.4	0	0	---	0.00	29.804 
05:10	65.0	65.0	65.0	88	61.4	0	0	---	0.00	29.804 
05:15	65.0	65.0	65.0	88	61.4	0	0	---	0.00	29.805 
05:20	65.0	65.0	65.0	88	61.4	0	0	---	0.00	29.805 
05:25	65.2	65.2	65.2	88	61.6	0	0	---	0.00	29.805 
05:30	65.2	65.2	65.2	88	61.6	0	0	---	0.00	29.810 
05:35	65.2	65.2	65.2	88	61.6	0	0	---	0.00	29.810 
05:40	65.2	65.2	65.2	88	61.6	0	0	---	0.00	29.810 
05:45	65.2	65.2	65.2	88	61.6	0	0	---	0.00	29.818 
05:50	65.3	65.3	65.3	88	61.6	0	0	---	0.00	29.818 
05:55	65.3	65.3	65.3	88	61.6	0	0	---	0.00	29.818 
06:00	65.3	65.3	65.3	88	61.6	0	0	---	0.00	29.821 
06:05	65.3	65.3	65.3	88	61.6	0	0	---	0.00	29.821 
06:10	65.3	65.3	65.3	88	61.6	0	0	---	0.00	29.821 
06:15	65.3	65.3	65.3	88	61.6	0	0	---	0.00	29.824 
06:20	65.2	65.2	65.2	88	61.6	0	0	---	0.00	29.824 
06:25	65.3	65.3	65.3	88	61.6	0	0	---	0.00	29.824 
06:30	65.3	65.3	65.3	88	61.6	0	0	---	0.00	29.828 
06:35	65.5	65.5	65.5	88	61.8	0	0	---	0.00	29.828 
06:40	65.6	65.6	65.6	88	61.9	0	0	---	0.00	29.828 
06:45	65.8	65.8	65.8	88	62.1	0	0	---	0.00	29.829 
06:50	66.0	66.0	66.0	88	62.3	0	0	---	0.00	29.829 
06:55	66.4	66.4	66.4	87	62.4	0	1	292	0.00	29.829 
07:00	66.8	66.8	66.8	86	62.5	0	1	292	0.00	29.837 
07:05	67.1	67.1	67.1	86	62.8	0	1	292	0.00	29.837 
07:10	67.3	67.3	67.3	85	62.6	0	1	292	0.00	29.837 
07:15	67.4	67.4	67.4	85	62.7	0	0	---	0.00	29.839 
07:20	67.6	67.6	67.6	84	62.6	0	1	292	0.00	29.839 
07:25	67.6	67.6	67.6	84	62.6	0	0	---	0.00	29.839 
07:30	67.8	67.8	67.8	84	62.8	0	0	---	0.00	29.842 
07:35	68.1	68.1	68.1	83	62.7	0	1	292	0.00	29.842 
07:40	68.6	68.6	68.6	83	63.2	0	1	292	0.00	29.842 
07:45	69.6	69.6	69.6	82	63.9	1	4	292	0.00	29.844 
07:50	70.1	70.1	70.1	80	63.6	0	1	112	0.00	29.844 
07:55	70.3	70.3	70.3	80	63.8	0	0	---	0.00	29.844 
08:00	70.4	70.4	70.4	80	63.9	0	0	---	0.00	29.844 
08:05	70.4	70.4	70.4	80	63.9	0	0	---	0.00	29.844 
08:10	70.6	70.6	70.6	80	64.1	0	0	---	0.00	29.844 
08:15	70.9	70.9	70.9	80	64.4	0	1	112	0.00	29.849 
08:20	71.3	71.3	71.3	80	64.8	0	0	---	0.00	29.849 
08:25	71.3	71.3	71.3	80	64.8	0	0	---	0.00	29.849 
08:30	71.5	71.5	71.5	80	65.0	0	0	---	0.00	29.850 
08:35	71.8	71.8	71.8	80	65.3	0	0	---	0.00	29.850 
08:40	71.8	71.8	71.8	79	64.9	0	1	112	0.00	29.850 
08:45	72.3	72.3	72.3	79	65.4	0	1	112	0.00	29.851 
08:50	72.7	72.7	72.7	77	65.1	0	1	112	0.00	29.851 
08:55	73.5	73.5	73.5	77	65.8	0	1	112	0.00	29.851 
09:00	74.0	74.0	74.0	75	65.6	0	1	112	0.00	29.848 
09:05	74.6	74.6	74.6	74	65.7	0	2	112	0.00	29.848 
09:10	74.9	74.9	74.9	73	65.6	0	1	112	0.00	29.848 
09:15	75.1	75.1	76.4	74	66.2	0	0	---	0.00	29.851 
09:20	75.6	75.6	77.1	72	65.9	0	1	112	0.00	29.851 
09:25	75.6	75.6	77.1	72	65.9	0	1	112	0.00	29.851 
09:30	75.8	75.8	77.3	72	66.1	0	1	112	0.00	29.851 
09:35	76.5	76.5	78.2	70	66.0	0	2	112	0.00	29.851 
09:40	77.6	77.6	79.5	68	66.2	0	1	112	0.00	29.851 
09:45	78.5	78.5	80.6	68	67.0	0	1	112	0.00	29.851 
09:50	79.0	79.0	81.3	68	67.5	1	4	112	0.00	29.851 
09:55	79.9	79.9	82.3	66	67.5	0	2	112	0.00	29.851 
10:00	80.1	80.1	82.5	65	67.2	1	3	112	0.00	29.852 
10:05	80.5	80.5	82.9	64	67.2	0	3	112	0.00	29.852 
10:10	80.5	80.5	82.8	63	66.7	0	2	112	0.00	29.852 
10:15	80.1	80.1	82.5	65	67.2	0	1	112	0.00	29.853 
10:20	79.8	79.8	81.9	63	66.1	0	1	112	0.00	29.853 
10:25	79.8	79.8	82.1	65	67.0	0	2	112	0.00	29.853 
10:30	79.9	79.9	82.2	65	67.1	0	2	135	0.00	29.861 
10:35	79.9	79.9	82.1	64	66.6	0	2	135	0.00	29.861 
10:40	79.9	79.9	81.9	62	65.7	0	2	135	0.00	29.861 
10:45	80.1	80.1	82.3	63	66.3	0	1	135	0.00	29.863 
10:50	80.3	80.3	82.8	65	67.4	0	0	---	0.00	29.863 
10:55	80.7	80.7	83.1	63	66.9	0	3	135	0.00	29.863 
11:00	81.1	81.1	83.3	61	66.4	0	1	45	0.00	29.861 
11:05	81.4	81.4	83.3	58	65.2	0	3	315	0.00	29.861 
11:10	81.6	81.6	84.0	61	66.8	0	1	315	0.00	29.861 
11:15	82.2	82.2	85.1	62	67.9	0	1	315	0.00	29.862 
11:20	82.4	82.4	84.6	58	66.1	0	1	315	0.00	29.862 
11:25	82.4	82.4	84.6	58	66.1	0	1	315	0.00	29.862 
11:30	82.8	82.8	85.2	58	66.5	0	1	315	0.00	29.858 
11:35	82.8	82.8	85.2	58	66.5	1	3	0	0.00	29.858 
11:40	82.6	82.6	84.7	57	65.8	0	2	0	0.00	29.858 
11:45	82.4	82.4	84.8	59	66.6	0	2	45	0.00	29.863 
11:50	82.0	82.0	84.2	59	66.2	0	1	45	0.00	29.863 
11:55	82.0	82.0	84.4	60	66.7	0	2	45	0.00	29.863 
12:00	81.8	81.8	83.6	57	65.0	1	6	90	0.00	29.861 
12:05	82.0	82.0	84.4	60	66.7	0	3	90	0.00	29.861 
12:10	82.4	82.4	84.8	59	66.6	0	1	90	0.00	29.861 
12:15	82.2	82.2	84.3	58	65.9	0	3	90	0.00	29.863 
12:20	82.4	82.4	84.8	59	66.6	0	2	158	0.00	29.863 
12:25	82.6	82.6	84.3	55	64.8	0	3	292	0.00	29.863 
12:30	83.2	83.2	85.8	58	66.9	0	1	292	0.00	29.856 
12:35	83.8	83.8	86.2	56	66.4	1	3	338	0.00	29.856 
12:40	83.8	83.8	85.7	54	65.3	1	4	112	0.00	29.856 
12:45	83.8	83.8	85.7	54	65.3	1	3	135	0.00	29.854 
12:50	83.2	83.2	84.9	54	64.8	0	1	68	0.00	29.854 
12:55	82.8	82.8	84.4	54	64.4	0	2	68	0.00	29.854 
13:00	83.0	83.0	84.9	55	65.1	0	1	68	0.00	29.854 
13:05	83.2	83.2	84.7	53	64.3	1	2	68	0.00	29.854 
13:10	83.6	83.6	85.2	53	64.6	0	2	68	0.00	29.854 
13:15	84.0	84.0	85.8	53	65.0	0	2	68	0.00	29.856 
13:20	84.1	84.1	85.7	52	64.5	0	3	68	0.00	29.856 
13:25	84.1	84.1	86.2	54	65.6	0	2	270	0.00	29.856 
13:30	84.5	84.5	87.3	56	67.0	0	2	68	0.00	29.851 
13:35	84.9	84.9	86.1	49	63.6	1	3	338	0.00	29.851 
13:40	84.9	84.9	85.6	47	62.4	1	2	338	0.00	29.851 
13:45	84.7	84.7	85.6	48	62.8	1	3	0	0.00	29.853 
13:50	84.7	84.7	85.6	48	62.8	0	1	338	0.00	29.853 
13:55	84.7	84.7	85.2	46	61.6	0	2	338	0.00	29.853 
14:00	85.1	85.1	85.7	46	62.0	1	3	292	0.00	29.851 
14:05	85.9	85.9	87.5	49	64.5	0	2	292	0.00	29.851 
14:10	85.9	85.9	86.2	44	61.4	0	2	292	0.00	29.851 
14:15	85.3	85.3	85.7	45	61.5	0	2	292	0.00	29.850 
14:20	84.7	84.7	85.4	47	62.2	0	1	292	0.00	29.850 
14:25	84.5	84.5	85.3	48	62.6	0	1	292	0.00	29.850 
14:30	84.7	84.7	85.6	48	62.8	0	1	292	0.00	29.851 
14:35	84.7	84.7	85.4	47	62.2	0	3	270	0.00	29.851 
14:40	85.7	85.7	87.4	50	64.9	0	2	180	0.00	29.851 
14:45	86.3	86.3	87.2	46	63.0	0	2	0	0.00	29.843 
14:50	86.5	86.5	88.1	48	64.4	0	3	0	0.00	29.843 
14:55	87.0	87.0	89.4	50	66.1	0	2	202	0.00	29.843 
15:00	86.5	86.5	87.5	46	63.2	0	2	202	0.00	29.839 
15:05	86.5	86.5	88.3	49	65.0	0	3	158	0.00	29.839 
15:10	86.5	86.5	89.3	52	66.7	0	2	158	0.00	29.839 
15:15	86.5	86.5	88.6	50	65.6	0	2	158	0.00	29.837 
15:20	86.7	86.7	88.6	49	65.2	1	3	158	0.00	29.837 
15:25	87.2	87.2	88.2	45	63.2	1	6	112	0.00	29.837 
15:30	87.4	87.4	87.9	43	62.1	1	4	112	0.00	29.836 
15:35	87.4	87.4	88.5	45	63.4	0	2	180	0.00	29.836 
15:40	87.8	87.8	89.4	46	64.4	2	6	112	0.00	29.836 
15:45	87.6	87.6	87.1	39	59.5	1	5	292	0.00	29.832 
15:50	87.4	87.4	87.1	40	60.1	0	2	292	0.00	29.832 
15:55	87.0	87.0	87.6	44	62.4	0	3	112	0.00	29.832 
16:00	86.5	86.5	86.5	42	60.6	1	6	0	0.00	29.833 
16:05	86.3	86.3	86.0	41	59.8	0	2	0	0.00	29.833 
16:10	86.5	86.5	86.7	43	61.3	0	3	0	0.00	29.833 
16:15	87.4	87.4	88.5	45	63.4	0	1	270	0.00	29.830 
16:20	88.0	88.0	89.0	44	63.3	0	3	0	0.00	29.830 
16:25	88.2	88.2	88.2	40	60.8	1	4	112	0.00	29.830 
16:30	88.2	88.2	88.7	42	62.2	0	1	45	0.00	29.824 
16:35	88.0	88.0	87.9	40	60.6	0	2	45	0.00	29.824 
16:40	87.6	87.6	87.6	41	60.9	0	2	135	0.00	29.824 
16:45	87.4	87.4	87.6	42	61.5	0	2	135	0.00	29.827 
16:50	87.2	87.2	87.6	43	61.9	0	5	90	0.00	29.827 
16:55	86.7	86.7	86.5	41	60.1	1	4	68	0.00	29.827 
17:00	86.1	86.1	86.0	42	60.3	0	2	68	0.00	29.823 
17:05	86.3	86.3	86.5	43	61.1	0	4	112	0.00	29.823 
17:10	86.5	86.5	86.5	42	60.6	0	1	112	0.00	29.823 
17:15	86.5	86.5	86.3	41	60.0	1	4	112	0.00	29.821 
17:20	86.5	86.5	87.0	44	62.0	0	6	112	0.00	29.821 
17:25	86.5	86.5	86.7	43	61.3	1	5	270	0.00	29.821 
17:30	86.3	86.3	86.2	42	60.5	0	1	135	0.00	29.824 
17:35	85.9	85.9	86.7	46	62.7	0	2	180	0.00	29.824 
17:40	85.1	85.1	85.0	43	60.1	0	1	180	0.00	29.824 
17:45	84.9	84.9	85.0	44	60.5	0	1	180	0.00	29.821 
17:50	84.9	84.9	85.4	46	61.8	0	1	180	0.00	29.821 
17:55	85.1	85.1	85.4	45	61.3	0	2	180	0.00	29.821 
18:00	85.3	85.3	85.0	42	59.6	0	1	180	0.00	29.817 
18:05	85.5	85.5	85.5	43	60.4	0	2	180	0.00	29.817 
18:10	85.5	85.5	85.3	42	59.8	0	2	0	0.00	29.817 
18:15	85.3	85.3	85.2	43	60.2	0	2	180	0.00	29.812 
18:20	85.3	85.3	85.7	45	61.5	0	1	180	0.00	29.812 
18:25	85.5	85.5	85.9	45	61.7	0	4	112	0.00	29.812 
18:30	85.5	85.5	85.1	41	59.1	0	1	135	0.00	29.808 
18:35	85.1	85.1	84.8	42	59.4	0	1	135	0.00	29.808 
18:40	84.7	84.7	84.6	43	59.7	0	2	135	0.00	29.808 
18:45	84.5	84.5	84.1	42	58.9	1	3	135	0.00	29.811 
18:50	84.3	84.3	84.3	44	60.0	1	2	158	0.00	29.811 
18:55	84.0	84.0	84.1	45	60.3	0	1	112	0.00	29.811 
19:00	83.6	83.6	83.7	45	60.0	0	2	135	0.00	29.805 
19:05	83.4	83.4	83.5	45	59.8	0	2	135	0.00	29.805 
19:10	83.2	83.2	83.4	46	60.2	0	2	135	0.00	29.805 
19:15	83.0	83.0	83.4	47	60.7	0	1	135	0.00	29.801 
19:20	82.8	82.8	83.0	46	59.9	1	4	135	0.00	29.801 
19:25	82.8	82.8	83.3	48	61.1	0	2	135	0.00	29.801 
19:30	82.6	82.6	83.4	50	62.0	0	2	135	0.00	29.801 
19:35	82.4	82.4	83.2	50	61.9	0	1	135	0.00	29.801 
19:40	82.2	82.2	83.0	50	61.7	0	1	135	0.00	29.801 
19:45	82.0	82.0	82.8	50	61.5	0	0	---	0.00	29.803 
19:50	81.8	81.8	82.6	50	61.3	0	1	135	0.00	29.803 
19:55	81.8	81.8	82.7	51	61.9	0	1	135	0.00	29.803 
20:00	81.8	81.8	83.0	53	63.0	0	1	135	0.00	29.802 
20:05	81.6	81.6	82.6	52	62.2	0	0	---	0.00	29.802 
20:10	81.6	81.6	82.8	53	62.8	0	2	135	0.00	29.802 
20:15	81.4	81.4	82.5	53	62.6	0	1	135	0.00	29.802 
20:20	81.2	81.2	82.3	53	62.4	0	0	---	0.00	29.802 
20:25	81.1	81.1	82.3	54	62.9	0	1	135	0.00	29.802 
20:30	80.7	80.7	81.9	54	62.5	0	0	---	0.00	29.803 
20:35	80.5	80.5	81.8	55	62.8	0	0	---	0.00	29.803 
20:40	80.1	80.1	81.4	55	62.4	0	0	---	0.00	29.803 
20:45	79.9	79.9	81.2	55	62.3	0	0	---	0.00	29.805 
20:50	79.6	79.6	81.0	56	62.5	0	0	---	0.00	29.805 
20:55	79.2	79.2	80.6	56	62.1	0	0	---	0.00	29.805 
21:00	78.8	78.8	80.3	57	62.3	0	0	---	0.00	29.807 
21:05	78.5	78.5	80.0	58	62.5	0	0	---	0.00	29.807 
21:10	78.1	78.1	79.7	58	62.1	0	0	---	0.00	29.807 
21:15	77.7	77.7	79.4	59	62.2	0	0	---	0.00	29.801 
21:20	77.4	77.4	79.1	60	62.4	0	0	---	0.00	29.801 
21:25	77.2	77.2	79.0	61	62.7	0	0	---	0.00	29.801 
21:30	77.0	77.0	78.8	62	63.0	0	0	---	0.00	29.804 
21:35	76.7	76.7	78.5	62	62.7	0	0	---	0.00	29.804 
21:40	76.5	76.5	78.3	63	62.9	0	0	---	0.00	29.804 
21:45	76.3	76.3	78.2	64	63.2	0	0	---	0.00	29.807 
21:50	76.1	76.1	78.0	65	63.5	0	1	135	0.00	29.807 
21:55	76.1	76.1	78.0	65	63.5	0	0	---	0.00	29.807 
22:00	76.0	76.0	77.9	65	63.4	0	1	135	0.00	29.810 
22:05	76.1	76.1	78.0	65	63.5	0	1	135	0.00	29.810 
22:10	76.0	76.0	77.9	65	63.4	0	0	---	0.00	29.810 
22:15	76.0	76.0	77.9	65	63.4	0	2	135	0.00	29.811 
22:20	76.0	76.0	77.9	65	63.4	0	2	135	0.00	29.811 
22:25	75.8	75.8	77.7	66	63.6	0	2	135	0.00	29.811 
22:30	75.6	75.6	77.4	67	63.9	0	2	135	0.00	29.813 
22:35	75.4	75.4	77.3	66	63.2	0	1	135	0.00	29.813 
22:40	75.3	75.3	77.2	66	63.1	1	3	135	0.00	29.813 
22:45	75.1	75.1	77.1	66	62.9	1	3	68	0.00	29.818 
22:50	74.9	74.9	74.9	66	62.8	1	3	90	0.00	29.818 
22:55	74.9	74.9	74.9	66	62.8	1	3	90	0.00	29.818 
23:00	74.6	74.6	74.6	67	62.9	0	3	90	0.00	29.821 
23:05	74.4	74.4	74.4	67	62.7	0	1	90	0.00	29.821 
23:10	74.2	74.2	74.2	69	63.4	0	2	90	0.00	29.821 
23:15	73.9	73.9	73.9	69	63.1	0	2	90	0.00	29.821 
23:20	73.7	73.7	73.7	70	63.3	0	1	90	0.00	29.821 
23:25	73.5	73.5	73.5	71	63.5	0	2	90	0.00	29.821 
23:30	73.3	73.3	73.3	72	63.7	0	2	90	0.00	29.827 
23:35	73.2	73.2	73.2	73	64.0	0	1	90	0.00	29.827 
23:40	73.0	73.0	73.0	74	64.2	0	1	90	0.00	29.827 
23:45	73.0	73.0	73.0	75	64.6	0	1	90	0.00	29.827 
23:50	72.8	72.8	72.8	76	64.8	0	1	90	0.00	29.827 
23:55	72.8	72.8	72.8	76	64.8	0	1	90	0.00	29.827 

CoCoRaHS
IN-AL-39
A2 Web Hosting
Creative Commons License
GoDaddy
search engine by freefind advanced

loaded 2018-11-16 11:32:16 • last modified 2010-11-18 10:43:29
Privacy PolicyDisclaimer
• wx.awcolley.com is powered by PmWiki v.2002016 •
• all content (unless otherwise noted) © 2018 A W Colley